Time;durP1;ratioP1;P1;durP2;ratioP2;P2;SDS_P1;SDS_P2;PMS_P1;PMS_P2;Temp;Humidity;BMP_temperature;BMP_pressure;BME280_temperature;BME280_humidity;BME280_pressure;Samples;Min_cycle;Max_cycle;Signal;HPM_P1;HPM_P2
2022/04/13 00:01:59;;;;;;;4.32;3.47;;;;;;;;;;10480884;28;20230;-82
2022/04/13 00:07:00;;;;;;;5.72;3.65;;;;;;;;;;10477631;28;20217;-83
2022/04/13 00:12:01;;;;;;;4.93;4.47;;;;;;;;;;10481634;28;20194;-83
2022/04/13 00:17:02;;;;;;;4.63;4.25;;;;;;;;;;10478659;28;20198;-84
2022/04/13 00:22:03;;;;;;;5.22;4.80;;;;;;;;;;10481900;28;20228;-83
2022/04/13 00:27:04;;;;;;;4.65;4.25;;;;;;;;;;10479287;28;20591;-82
2022/04/13 00:32:07;;;;;;;4.60;4.28;;;;;;;;;;10455474;28;20753;-83
2022/04/13 00:37:08;;;;;;;4.60;4.20;;;;;;;;;;10473298;28;20210;-84
2022/04/13 00:42:09;;;;;;;4.60;4.30;;;;;;;;;;10474539;28;20207;-84
2022/04/13 00:47:11;;;;;;;5.43;4.82;;;;;;;;;;10474980;28;20198;-83
2022/04/13 00:52:14;;;;;;;4.95;4.53;;;;;;;;;;10477929;28;20202;-83
2022/04/13 00:57:16;;;;;;;7.75;5.38;;;;;;;;;;10464081;28;20226;-83
2022/04/13 01:02:18;;;;;;;5.50;4.85;;;;;;;;;;10485734;28;20222;-83
2022/04/13 01:07:20;;;;;;;12.88;5.30;;;;;;;;;;10479990;28;20198;-83
2022/04/13 01:12:21;;;;;;;6.07;5.00;;;;;;;;;;10487204;28;20211;-73
2022/04/13 01:17:22;;;;;;;5.05;4.63;;;;;;;;;;10484768;28;20202;-84
2022/04/13 01:22:25;;;;;;;5.35;4.90;;;;;;;;;;10485234;28;20674;-82
2022/04/13 01:27:27;;;;;;;5.07;4.68;;;;;;;;;;10484020;28;20207;-83
2022/04/13 01:32:28;;;;;;;6.15;5.20;;;;;;;;;;10481827;28;20329;-84
2022/04/13 01:37:29;;;;;;;5.93;5.18;;;;;;;;;;10481342;28;20225;-83
2022/04/13 01:42:30;;;;;;;6.70;5.72;;;;;;;;;;10480344;28;20206;-82
2022/04/13 01:47:31;;;;;;;6.97;5.30;;;;;;;;;;10486417;28;20224;-82
2022/04/13 01:52:32;;;;;;;5.38;4.88;;;;;;;;;;10482668;28;20206;-84
2022/04/13 01:57:33;;;;;;;8.00;5.30;;;;;;;;;;10453353;28;20243;-84
2022/04/13 02:02:34;;;;;;;9.40;5.40;;;;;;;;;;10443330;28;20219;-83
2022/04/13 02:07:35;;;;;;;10.60;5.05;;;;;;;;;;10435963;28;21594;-82
2022/04/13 02:12:37;;;;;;;7.40;5.95;;;;;;;;;;10438757;28;20195;-82
2022/04/13 02:17:38;;;;;;;9.25;5.85;;;;;;;;;;10437700;28;20195;-83
2022/04/13 02:22:40;;;;;;;6.00;5.57;;;;;;;;;;10442122;28;20622;-84
2022/04/13 02:27:42;;;;;;;5.82;5.32;;;;;;;;;;10443914;28;20310;-82
2022/04/13 02:32:44;;;;;;;5.78;5.20;;;;;;;;;;10437043;28;20218;-83
2022/04/13 02:37:45;;;;;;;5.55;4.50;;;;;;;;;;10435453;28;20691;-77
2022/04/13 02:42:46;;;;;;;7.90;5.53;;;;;;;;;;10438247;28;20206;-81
2022/04/13 02:47:47;;;;;;;6.53;5.07;;;;;;;;;;10435809;28;20203;-83
2022/04/13 02:52:48;;;;;;;6.65;5.63;;;;;;;;;;10452359;28;20195;-83
2022/04/13 02:57:49;;;;;;;7.57;5.55;;;;;;;;;;10472357;28;20222;-82
2022/04/13 03:02:50;;;;;;;6.80;5.85;;;;;;;;;;10479671;28;20214;-82
2022/04/13 03:07:51;;;;;;;5.60;5.10;;;;;;;;;;10478385;28;21129;-83
2022/04/13 03:12:52;;;;;;;5.40;4.90;;;;;;;;;;10477006;28;20226;-83
2022/04/13 03:17:53;;;;;;;7.85;5.57;;;;;;;;;;10475787;28;20222;-81
2022/04/13 03:22:54;;;;;;;5.10;4.72;;;;;;;;;;10467089;28;20191;-84
2022/04/13 03:27:55;;;;;;;7.72;5.32;;;;;;;;;;10479659;28;20209;-82
2022/04/13 03:32:56;;;;;;;6.20;5.47;;;;;;;;;;10474107;28;20217;-82
2022/04/13 03:37:57;;;;;;;7.82;5.43;;;;;;;;;;10475132;28;20213;-82
2022/04/13 03:42:58;;;;;;;6.65;5.43;;;;;;;;;;10474951;28;20284;-84
2022/04/13 03:47:59;;;;;;;9.48;6.60;;;;;;;;;;10479721;28;20237;-83
2022/04/13 03:53:01;;;;;;;7.00;5.50;;;;;;;;;;10480673;28;20243;-83
2022/04/13 03:58:02;;;;;;;9.85;5.53;;;;;;;;;;10472494;28;20257;-83
2022/04/13 04:03:03;;;;;;;8.18;5.38;;;;;;;;;;10476382;28;20217;-83
2022/04/13 04:08:04;;;;;;;7.18;5.80;;;;;;;;;;10479296;28;20226;-82
2022/04/13 04:13:05;;;;;;;8.93;6.03;;;;;;;;;;10481002;28;20195;-83
2022/04/13 04:18:07;;;;;;;10.40;6.57;;;;;;;;;;10478734;28;20775;-84
2022/04/13 04:23:08;;;;;;;6.65;5.85;;;;;;;;;;10468675;28;20295;-82
2022/04/13 04:28:10;;;;;;;6.53;5.88;;;;;;;;;;10479730;28;20194;-83
2022/04/13 04:33:16;;;;;;;8.73;6.03;;;;;;;;;;10474048;28;20223;-82
2022/04/13 04:38:17;;;;;;;8.45;5.43;;;;;;;;;;10473911;28;20220;-82
2022/04/13 04:43:18;;;;;;;6.63;6.03;;;;;;;;;;10479652;28;20293;-82
2022/04/13 04:48:19;;;;;;;7.35;6.15;;;;;;;;;;10470189;28;20223;-79
2022/04/13 04:53:20;;;;;;;6.50;5.90;;;;;;;;;;10490351;28;20221;-84
2022/04/13 04:58:21;;;;;;;9.35;6.10;;;;;;;;;;10506091;28;20258;-84
2022/04/13 05:03:22;;;;;;;8.30;6.32;;;;;;;;;;10494243;28;20273;-85
2022/04/13 05:08:23;;;;;;;9.10;6.32;;;;;;;;;;10493110;28;20214;-85
2022/04/13 05:13:24;;;;;;;8.10;6.80;;;;;;;;;;10502863;28;20213;-83
2022/04/13 05:18:25;;;;;;;8.90;6.60;;;;;;;;;;10501322;28;20218;-86
2022/04/13 05:23:26;;;;;;;8.25;6.75;;;;;;;;;;10493008;28;20205;-84
2022/04/13 05:28:29;;;;;;;7.07;5.88;;;;;;;;;;10500812;28;20214;-84
2022/04/13 05:33:30;;;;;;;7.10;5.85;;;;;;;;;;10487930;28;20225;-87
2022/04/13 05:38:31;;;;;;;10.63;6.60;;;;;;;;;;10484512;28;20213;-86
2022/04/13 05:43:34;;;;;;;10.38;6.78;;;;;;;;;;10486724;28;20295;-85
2022/04/13 05:48:35;;;;;;;17.58;7.60;;;;;;;;;;10498256;28;20203;-88
2022/04/13 05:53:37;;;;;;;7.30;6.57;;;;;;;;;;10496522;28;20263;-86
2022/04/13 05:58:38;;;;;;;9.38;7.00;;;;;;;;;;10465746;28;20229;-86
2022/04/13 06:03:39;;;;;;;8.77;7.50;;;;;;;;;;10449994;28;20217;-85
2022/04/13 06:08:41;;;;;;;10.65;7.07;;;;;;;;;;10444495;28;20276;-84
2022/04/13 06:13:42;;;;;;;11.23;6.65;;;;;;;;;;10447724;28;20227;-83
2022/04/13 06:18:43;;;;;;;7.47;6.78;;;;;;;;;;10451048;28;20199;-85
2022/04/13 06:23:44;;;;;;;9.27;7.07;;;;;;;;;;10452309;28;20198;-86
2022/04/13 06:28:45;;;;;;;8.77;7.85;;;;;;;;;;10449353;28;20211;-85
2022/04/13 06:33:48;;;;;;;9.43;7.07;;;;;;;;;;10448526;28;20222;-87
2022/04/13 06:38:50;;;;;;;10.25;7.68;;;;;;;;;;10447264;28;20214;-86
2022/04/13 06:43:53;;;;;;;9.82;7.50;;;;;;;;;;10460789;28;20195;-84
2022/04/13 06:48:54;;;;;;;7.57;6.88;;;;;;;;;;10450741;28;20202;-84
2022/04/13 06:53:55;;;;;;;7.93;7.13;;;;;;;;;;10439414;28;20333;-79
2022/04/13 06:58:56;;;;;;;8.20;7.22;;;;;;;;;;10444402;28;20322;-76
2022/04/13 07:03:57;;;;;;;11.88;7.47;;;;;;;;;;10428795;28;20297;-80
2022/04/13 07:08:58;;;;;;;8.63;6.82;;;;;;;;;;10430173;28;20236;-78
2022/04/13 07:13:59;;;;;;;12.80;7.65;;;;;;;;;;10432841;28;20226;-80
2022/04/13 07:19:00;;;;;;;12.02;7.18;;;;;;;;;;10429103;28;20287;-82
2022/04/13 07:24:01;;;;;;;10.07;7.60;;;;;;;;;;10431580;28;20235;-80
2022/04/13 07:29:02;;;;;;;11.18;7.13;;;;;;;;;;10429053;28;20236;-83
2022/04/13 07:34:03;;;;;;;13.93;8.70;;;;;;;;;;10427336;28;20211;-82
2022/04/13 07:39:04;;;;;;;8.43;7.63;;;;;;;;;;10428156;28;20972;-80
2022/04/13 07:44:05;;;;;;;7.70;7.03;;;;;;;;;;10430226;28;20293;-83
2022/04/13 07:49:08;;;;;;;8.38;7.57;;;;;;;;;;10435815;28;20207;-83
2022/04/13 07:54:09;;;;;;;8.35;7.45;;;;;;;;;;10413906;28;20234;-81
2022/04/13 07:59:10;;;;;;;9.23;8.23;;;;;;;;;;10426925;28;20230;-79
2022/04/13 08:04:11;;;;;;;10.57;8.02;;;;;;;;;;10413970;28;20310;-80
2022/04/13 08:09:12;;;;;;;48.67;12.52;;;;;;;;;;10420621;28;20296;-69
2022/04/13 08:14:13;;;;;;;11.50;7.38;;;;;;;;;;10419163;28;20225;-72
2022/04/13 08:19:15;;;;;;;11.05;8.00;;;;;;;;;;10421061;28;20214;-71
2022/04/13 08:24:18;;;;;;;8.93;7.85;;;;;;;;;;10418817;28;20275;-72
2022/04/13 08:29:19;;;;;;;7.85;7.18;;;;;;;;;;10414363;28;20202;-71
2022/04/13 08:34:20;;;;;;;15.85;8.32;;;;;;;;;;10402149;28;20276;-72
2022/04/13 08:39:21;;;;;;;8.68;7.80;;;;;;;;;;10412650;28;20881;-71
2022/04/13 08:44:22;;;;;;;12.13;8.07;;;;;;;;;;10418363;28;20210;-72
2022/04/13 08:49:24;;;;;;;16.05;8.40;;;;;;;;;;10418988;28;20219;-71
2022/04/13 08:54:31;;;;;;;9.68;7.90;;;;;;;;;;10423696;28;20229;-72
2022/04/13 08:59:35;;;;;;;11.13;7.80;;;;;;;;;;10462587;28;20257;-82
2022/04/13 09:04:37;;;;;;;10.40;8.45;;;;;;;;;;10467858;28;20242;-86
2022/04/13 09:09:41;;;;;;;13.68;9.40;;;;;;;;;;10470431;28;20227;-81
2022/04/13 09:14:43;;;;;;;11.88;8.52;;;;;;;;;;10471025;28;20214;-87
2022/04/13 09:19:46;;;;;;;8.35;7.55;;;;;;;;;;10485996;28;20305;-79
2022/04/13 09:24:48;;;;;;;8.68;7.82;;;;;;;;;;10482995;28;20201;-85
2022/04/13 09:29:49;;;;;;;10.77;8.40;;;;;;;;;;10487045;28;20267;-83
2022/04/13 09:34:50;;;;;;;11.75;8.65;;;;;;;;;;10483375;28;20304;-84
2022/04/13 09:39:52;;;;;;;9.10;8.07;;;;;;;;;;10480649;28;20666;-84
2022/04/13 09:44:57;;;;;;;9.18;7.10;;;;;;;;;;10484317;28;20232;-84
2022/04/13 09:49:58;;;;;;;8.55;7.65;;;;;;;;;;10476939;28;20320;-83
2022/04/13 09:54:59;;;;;;;9.40;7.65;;;;;;;;;;10485248;28;20337;-83
2022/04/13 10:00:01;;;;;;;9.43;8.52;;;;;;;;;;10481411;28;20222;-80
2022/04/13 10:05:19;;;;;;;9.98;7.80;;;;;;;;;;10480608;28;20326;-84
2022/04/13 10:10:24;;;;;;;10.40;7.68;;;;;;;;;;10481462;28;20202;-84
2022/04/13 10:15:25;;;;;;;7.90;7.10;;;;;;;;;;10482521;28;20215;-86
2022/04/13 10:20:41;;;;;;;8.77;7.13;;;;;;;;;;10479081;28;20209;-83
2022/04/13 10:25:43;;;;;;;7.57;6.88;;;;;;;;;;10476073;28;21312;-83
2022/04/13 10:30:44;;;;;;;8.75;7.13;;;;;;;;;;10481516;28;20584;-84
2022/04/13 10:35:46;;;;;;;10.63;7.40;;;;;;;;;;10463737;28;20222;-86
2022/04/13 10:40:49;;;;;;;9.68;8.73;;;;;;;;;;10486376;28;20210;-88
2022/04/13 10:45:50;;;;;;;8.05;7.25;;;;;;;;;;10485805;28;20210;-82
2022/04/13 10:50:55;;;;;;;13.52;7.75;;;;;;;;;;10478215;28;20214;-85
2022/04/13 10:56:04;;;;;;;8.98;7.15;;;;;;;;;;10479706;28;20222;-85
2022/04/13 11:01:05;;;;;;;10.63;8.13;;;;;;;;;;10479393;28;20223;-85
2022/04/13 11:06:07;;;;;;;9.52;7.05;;;;;;;;;;10477835;28;20203;-85
2022/04/13 11:11:09;;;;;;;7.88;6.82;;;;;;;;;;10482234;28;20198;-84
2022/04/13 11:16:17;;;;;;;8.48;7.35;;;;;;;;;;10467258;28;20198;-79
2022/04/13 11:21:18;;;;;;;8.40;6.18;;;;;;;;;;10462856;28;20238;-79
2022/04/13 11:26:41;;;;;;;11.32;7.07;;;;;;;;;;10449534;28;20690;-77
2022/04/13 11:32:00;;;;;;;7.60;7.00;;;;;;;;;;10434413;28;20222;-78
2022/04/13 11:37:02;;;;;;;7.97;7.18;;;;;;;;;;10459036;28;20763;-77
2022/04/13 11:42:03;;;;;;;7.90;7.20;;;;;;;;;;10459899;28;20702;-79
2022/04/13 11:47:13;;;;;;;7.50;6.82;;;;;;;;;;10461696;28;20203;-79
2022/04/13 11:52:33;;;;;;;8.65;7.70;;;;;;;;;;10460722;28;20210;-78
2022/04/13 11:57:58;;;;;;;8.90;7.00;;;;;;;;;;10462471;28;20248;-77
2022/04/13 12:02:59;;;;;;;8.57;7.72;;;;;;;;;;10463814;28;20233;-86
2022/04/13 12:08:00;;;;;;;8.32;7.53;;;;;;;;;;10465368;28;20214;-74
2022/04/13 12:13:03;;;;;;;8.18;6.75;;;;;;;;;;10460979;28;20988;-76
2022/04/13 12:18:07;;;;;;;7.75;7.00;;;;;;;;;;10479716;28;20198;-86
2022/04/13 12:23:19;;;;;;;7.13;6.60;;;;;;;;;;10488269;28;20190;-88
2022/04/13 12:28:22;;;;;;;10.07;6.60;;;;;;;;;;10490365;28;20215;-88
2022/04/13 12:33:23;;;;;;;7.63;6.93;;;;;;;;;;10482819;28;20305;-87
2022/04/13 12:38:29;;;;;;;6.75;6.20;;;;;;;;;;10483064;28;20206;-87
2022/04/13 12:43:31;;;;;;;7.05;6.40;;;;;;;;;;10484004;28;20229;-85
2022/04/13 12:48:32;;;;;;;8.48;6.38;;;;;;;;;;10470458;28;20236;-80
2022/04/13 12:53:46;;;;;;;7.32;6.63;;;;;;;;;;10476245;28;20228;-83
2022/04/13 12:58:47;;;;;;;6.95;6.38;;;;;;;;;;10479167;28;20230;-81
2022/04/13 13:03:48;;;;;;;10.55;6.50;;;;;;;;;;10476159;28;20633;-85
2022/04/13 13:08:51;;;;;;;10.73;6.20;;;;;;;;;;10478573;28;20194;-86
2022/04/13 13:13:52;;;;;;;5.63;4.88;;;;;;;;;;10474220;28;20217;-84
2022/04/13 13:19:11;;;;;;;8.00;5.35;;;;;;;;;;10477007;28;20220;-81
2022/04/13 13:24:25;;;;;;;7.60;5.78;;;;;;;;;;10484395;28;20206;-79
2022/04/13 13:29:26;;;;;;;7.47;5.85;;;;;;;;;;10474958;28;20202;-73
2022/04/13 13:34:27;;;;;;;6.20;5.50;;;;;;;;;;10464156;28;20223;-77
2022/04/13 13:39:28;;;;;;;7.35;6.63;;;;;;;;;;10476506;28;20213;-81
2022/04/13 13:44:29;;;;;;;7.32;6.45;;;;;;;;;;10473353;28;20198;-79
2022/04/13 13:49:30;;;;;;;6.05;5.53;;;;;;;;;;10473513;28;20206;-77
2022/04/13 13:54:33;;;;;;;8.30;5.68;;;;;;;;;;10462713;28;21160;-75
2022/04/13 13:59:34;;;;;;;5.90;5.18;;;;;;;;;;10460141;28;20217;-75
2022/04/13 14:04:35;;;;;;;12.57;5.35;;;;;;;;;;10461349;28;20331;-74
2022/04/13 14:09:36;;;;;;;5.40;4.85;;;;;;;;;;10463896;28;20206;-74
2022/04/13 14:14:37;;;;;;;5.85;5.40;;;;;;;;;;10462697;28;20202;-74
2022/04/13 14:19:38;;;;;;;9.68;5.72;;;;;;;;;;10462652;28;20207;-74
2022/04/13 14:24:40;;;;;;;5.75;5.35;;;;;;;;;;10465366;28;20230;-69
2022/04/13 14:29:41;;;;;;;6.05;4.82;;;;;;;;;;10461632;28;20206;-74
2022/04/13 14:34:42;;;;;;;5.50;4.90;;;;;;;;;;10443425;28;20578;-73
2022/04/13 14:39:43;;;;;;;6.90;6.15;;;;;;;;;;10460861;28;20214;-74
2022/04/13 14:44:44;;;;;;;5.22;4.72;;;;;;;;;;10462456;28;21131;-74
2022/04/13 14:49:45;;;;;;;8.75;4.57;;;;;;;;;;10443334;28;20205;-77
2022/04/13 14:54:46;;;;;;;6.88;4.50;;;;;;;;;;10460273;28;20240;-75
2022/04/13 14:59:47;;;;;;;4.07;3.75;;;;;;;;;;10455779;28;20269;-74
2022/04/13 15:04:50;;;;;;;7.32;5.18;;;;;;;;;;10461151;28;20218;-79
2022/04/13 15:09:52;;;;;;;5.78;5.15;;;;;;;;;;10470131;28;20225;-81
2022/04/13 15:14:53;;;;;;;6.18;5.57;;;;;;;;;;10461469;28;20221;-77
2022/04/13 15:19:54;;;;;;;8.00;5.15;;;;;;;;;;10465252;28;20206;-78
2022/04/13 15:24:55;;;;;;;6.80;5.07;;;;;;;;;;10470404;28;20263;-74
2022/04/13 15:29:56;;;;;;;6.30;5.50;;;;;;;;;;10455206;28;20289;-75
2022/04/13 15:34:57;;;;;;;5.18;4.65;;;;;;;;;;10454658;28;20345;-71
2022/04/13 15:39:58;;;;;;;7.85;5.53;;;;;;;;;;10453110;28;20245;-72
2022/04/13 15:44:59;;;;;;;8.50;5.53;;;;;;;;;;10458863;28;20282;-80
2022/04/13 15:50:03;;;;;;;8.65;5.50;;;;;;;;;;10469267;28;20214;-82
2022/04/13 15:55:04;;;;;;;7.65;5.32;;;;;;;;;;10455892;28;20222;-75
2022/04/13 16:00:06;;;;;;;11.77;5.72;;;;;;;;;;10458382;28;20214;-75
2022/04/13 16:05:18;;;;;;;8.18;5.32;;;;;;;;;;10460936;28;20214;-75
2022/04/13 16:10:23;;;;;;;9.18;5.35;;;;;;;;;;10460975;28;20195;-75
2022/04/13 16:15:24;;;;;;;21.15;8.15;;;;;;;;;;10462092;28;20588;-75
2022/04/13 16:20:26;;;;;;;8.80;6.32;;;;;;;;;;10440232;28;20309;-74
2022/04/13 19:40:30;;;;;;;8.02;7.38;;;;;;;;;;12751281;22;1447032;-72
2022/04/13 19:45:32;;;;;;;8.65;7.53;;;;;;;;;;12784560;23;20205;-70
2022/04/13 19:50:33;;;;;;;11.77;6.75;;;;;;;;;;12786801;23;20179;-70
2022/04/13 19:55:34;;;;;;;7.40;6.55;;;;;;;;;;12788569;23;20164;-70
2022/04/13 20:00:35;;;;;;;7.18;6.50;;;;;;;;;;12750856;23;20197;-72
2022/04/13 20:05:36;;;;;;;6.93;6.03;;;;;;;;;;12597003;23;20274;-72
2022/04/13 20:10:37;;;;;;;11.18;7.20;;;;;;;;;;12651132;23;20597;-72
2022/04/13 20:15:38;;;;;;;6.40;5.97;;;;;;;;;;12657680;23;20177;-72
2022/04/13 20:20:39;;;;;;;6.95;6.43;;;;;;;;;;12659017;23;20240;-72
2022/04/13 20:25:40;;;;;;;8.85;6.95;;;;;;;;;;12658216;23;20267;-73
2022/04/13 20:30:43;;;;;;;16.77;6.95;;;;;;;;;;12659182;23;20252;-72
2022/04/13 20:35:44;;;;;;;9.18;6.82;;;;;;;;;;12656438;23;20239;-73
2022/04/13 20:40:46;;;;;;;7.90;7.20;;;;;;;;;;12658632;23;20279;-72
2022/04/13 20:45:47;;;;;;;12.13;7.22;;;;;;;;;;12657257;23;20204;-72
2022/04/13 20:50:48;;;;;;;10.00;7.50;;;;;;;;;;12658236;23;20604;-72
2022/04/13 20:55:49;;;;;;;7.65;6.85;;;;;;;;;;12661008;23;20265;-72
2022/04/13 21:00:50;;;;;;;9.50;7.35;;;;;;;;;;12658720;23;20196;-72
2022/04/13 21:05:51;;;;;;;8.63;7.60;;;;;;;;;;12658354;23;20223;-73
2022/04/13 21:10:52;;;;;;;11.20;7.97;;;;;;;;;;12659554;23;20193;-72
2022/04/13 21:15:53;;;;;;;11.95;9.68;;;;;;;;;;12658412;23;20185;-72
2022/04/13 21:20:54;;;;;;;10.35;9.05;;;;;;;;;;12659663;23;20188;-72
2022/04/13 21:25:55;;;;;;;13.40;10.35;;;;;;;;;;12656371;23;20247;-72
2022/04/13 21:30:57;;;;;;;12.75;11.27;;;;;;;;;;12657130;23;20207;-72
2022/04/13 21:35:58;;;;;;;13.43;10.77;;;;;;;;;;12658259;23;20958;-72
2022/04/13 21:40:59;;;;;;;14.45;11.95;;;;;;;;;;12657173;23;20232;-72
2022/04/13 21:46:00;;;;;;;17.13;11.68;;;;;;;;;;12659429;23;20185;-73
2022/04/13 21:51:01;;;;;;;12.57;10.98;;;;;;;;;;12658681;23;20264;-72
2022/04/13 21:56:03;;;;;;;15.13;11.02;;;;;;;;;;12659349;23;20195;-73
2022/04/13 22:01:04;;;;;;;13.48;12.10;;;;;;;;;;12657632;23;20292;-72
2022/04/13 22:06:05;;;;;;;14.18;12.30;;;;;;;;;;12657966;23;20188;-72
2022/04/13 22:11:08;;;;;;;13.07;11.77;;;;;;;;;;12659643;23;20712;-71
2022/04/13 22:16:09;;;;;;;13.23;11.82;;;;;;;;;;12658086;23;20200;-72
2022/04/13 22:21:10;;;;;;;16.13;12.23;;;;;;;;;;12660844;23;20653;-72
2022/04/13 22:26:11;;;;;;;18.95;11.55;;;;;;;;;;12662157;23;20189;-71
2022/04/13 22:31:12;;;;;;;15.32;11.15;;;;;;;;;;12660802;23;20208;-72
2022/04/13 22:36:13;;;;;;;13.68;12.23;;;;;;;;;;12663444;23;20185;-72
2022/04/13 22:41:14;;;;;;;18.40;11.80;;;;;;;;;;12661528;23;20224;-73
2022/04/13 22:46:16;;;;;;;14.80;11.27;;;;;;;;;;12662066;23;20507;-73
2022/04/13 22:51:17;;;;;;;13.95;11.40;;;;;;;;;;12661386;23;20197;-73
2022/04/13 22:56:18;;;;;;;14.80;11.52;;;;;;;;;;12661093;23;20263;-73
2022/04/13 23:01:19;;;;;;;11.95;10.52;;;;;;;;;;12656849;23;20208;-72
2022/04/13 23:06:20;;;;;;;13.48;9.80;;;;;;;;;;12655355;23;20644;-73
2022/04/13 23:11:21;;;;;;;11.50;10.38;;;;;;;;;;12657019;23;20193;-72
2022/04/13 23:16:22;;;;;;;15.43;10.32;;;;;;;;;;12659177;23;20193;-73
2022/04/13 23:21:23;;;;;;;14.43;11.10;;;;;;;;;;12660875;23;20197;-73
2022/04/13 23:26:24;;;;;;;14.25;11.13;;;;;;;;;;12659730;23;20576;-72
2022/04/13 23:31:25;;;;;;;16.27;11.45;;;;;;;;;;12659321;23;20205;-73
2022/04/13 23:36:26;;;;;;;15.63;12.00;;;;;;;;;;12633229;23;20185;-73
2022/04/13 23:41:27;;;;;;;12.93;10.75;;;;;;;;;;12659903;23;20200;-73
2022/04/13 23:46:29;;;;;;;11.63;10.50;;;;;;;;;;12659481;23;20188;-73
2022/04/13 23:51:30;;;;;;;15.50;11.10;;;;;;;;;;12657718;23;20320;-73
2022/04/13 23:56:31;;;;;;;15.07;11.38;;;;;;;;;;12659212;23;20181;-72
